ENKB/KSU METAR and TAF weather

Enter ICAO airport designator
Station Type Date Time Source
ENKB METAR 2021/07/24 20:50 UTC NOAA

ENKB 242050Z AUTO 26012KT 1200 R07/P2000N R25/P2000N OVC001/// 13/13 Q1017 RMK WIND 745FT 27010KT


Station Type Date Time Source
ENKB Decoded METAR 2021/07/24 20:50 UTC NOAA

Kristiansund / Kvernberget, Norway (ENKB) 63-07N 007-50E 62M
Jul 24, 2021 - 04:50 PM EDT / 2021.07.24 2050 UTC
Wind: from the W (260 degrees) at 14 MPH (12 KT):0
Visibility: less than 1 mile:0
Sky conditions: overcast
Temperature: 55 F (13 C)
Dew Point: 55 F (13 C)
Relative Humidity: 100%
Pressure (altimeter): 30.03 in. Hg (1017 hPa)
ob: ENKB 242050Z AUTO 26012KT 1200 R07/P2000N R25/P2000N OVC001/// 13/13 Q1017 RMK WIND 745FT 27010KT
cycle: 21

Station Type Date Time Source
ENKB TAF 2010/02/05 07:50 UTC NOAA

METAR ENKB 050750Z 15011KT 110V200 9999 SCT055 BKN070 03/M05 Q1007

Example: see airport list